createdAt,value
2022-09-18T00:01:00.789Z,3.10
2022-09-18T00:03:28.456Z,2.90
2022-09-18T00:05:55.148Z,2.50
2022-09-18T00:08:21.784Z,3.40
2022-09-18T00:10:48.510Z,2.63
2022-09-18T00:13:15.878Z,2.30
2022-09-18T00:15:53.747Z,5.30
2022-09-18T00:18:20.452Z,3.20
2022-09-18T00:20:47.041Z,2.90
2022-09-18T00:23:13.661Z,2.53
2022-09-18T00:25:41.559Z,3.47
2022-09-18T00:28:08.154Z,3.20
2022-09-18T00:30:34.731Z,2.77
2022-09-18T00:33:01.298Z,2.30
2022-09-18T00:35:27.882Z,2.90
2022-09-18T00:37:54.563Z,3.57
2022-09-18T00:40:21.195Z,2.87
2022-09-18T00:42:47.803Z,2.70
2022-09-18T00:45:14.376Z,3.20
2022-09-18T00:47:50.687Z,2.87
2022-09-18T00:50:24.447Z,2.87
2022-09-18T00:53:00.229Z,2.80
2022-09-18T00:55:32.948Z,2.90
2022-09-18T00:58:02.250Z,4.10
2022-09-18T01:00:29.660Z,2.63
2022-09-18T01:03:04.183Z,2.73
2022-09-18T01:05:39.758Z,3.13
2022-09-18T01:08:28.728Z,2.60
2022-09-18T01:11:13.479Z,3.13
2022-09-18T01:14:03.541Z,2.63
2022-09-18T01:16:36.027Z,2.57
2022-09-18T01:19:26.532Z,2.77
2022-09-18T01:22:07.318Z,2.80
2022-09-18T01:24:49.460Z,2.43
2022-09-18T01:27:37.359Z,2.73
2022-09-18T01:30:09.007Z,3.30
2022-09-18T01:32:45.443Z,2.43
2022-09-18T01:35:40.613Z,3.00
2022-09-18T01:38:19.396Z,2.70
2022-09-18T01:40:50.769Z,2.60
2022-09-18T01:43:20.179Z,2.70
2022-09-18T01:45:50.200Z,3.23
2022-09-18T01:48:50.715Z,2.73
2022-09-18T01:51:21.367Z,2.77
2022-09-18T01:54:03.782Z,3.17
2022-09-18T01:56:37.253Z,2.90
2022-09-18T01:59:11.833Z,2.50
2022-09-18T02:01:43.556Z,2.63
2022-09-18T02:04:18.237Z,3.30
2022-09-18T02:07:21.549Z,4.03
2022-09-18T02:09:48.339Z,3.20
2022-09-18T02:12:21.022Z,3.03
2022-09-18T02:14:52.564Z,2.70
2022-09-18T02:17:28.673Z,2.20
2022-09-18T02:20:03.515Z,2.20
2022-09-18T02:22:34.013Z,2.87
2022-09-18T02:25:04.279Z,2.80
2022-09-18T02:27:33.138Z,3.37
2022-09-18T02:30:05.024Z,2.77
2022-09-18T02:32:31.851Z,2.80
2022-09-18T02:34:58.545Z,2.40
2022-09-18T02:37:41.408Z,2.60
2022-09-18T02:40:43.937Z,2.97
2022-09-18T02:43:29.497Z,2.77
2022-09-18T02:46:15.487Z,2.07
2022-09-18T02:48:47.718Z,2.40
2022-09-18T02:51:30.482Z,2.10
2022-09-18T02:54:05.984Z,3.47
2022-09-18T02:56:44.896Z,2.90
2022-09-18T02:59:43.885Z,2.00
2022-09-18T03:02:10.720Z,2.23
2022-09-18T03:04:37.508Z,1.80
2022-09-18T03:07:04.379Z,1.70
2022-09-18T03:09:32.244Z,1.57
2022-09-18T03:11:58.910Z,2.90
2022-09-18T03:14:25.491Z,1.90
2022-09-18T03:16:52.091Z,1.93
2022-09-18T03:19:19.692Z,1.63
2022-09-18T03:21:46.419Z,1.90
2022-09-18T03:24:13.044Z,1.60
2022-09-18T03:26:39.625Z,2.20
2022-09-18T03:29:09.809Z,1.67
2022-09-18T03:31:36.579Z,2.20
2022-09-18T03:34:03.699Z,1.60
2022-09-18T03:36:30.440Z,1.70
2022-09-18T03:38:57.236Z,2.07
2022-09-18T03:41:24.093Z,1.70
2022-09-18T03:43:51.125Z,1.77
2022-09-18T03:46:23.502Z,2.30
2022-09-18T03:48:51.165Z,1.90
2022-09-18T03:51:19.023Z,1.80
2022-09-18T03:53:46.804Z,1.63
2022-09-18T03:56:15.405Z,1.90
2022-09-18T03:58:42.548Z,2.50
2022-09-18T04:01:09.638Z,1.90
2022-09-18T04:03:36.317Z,1.60
2022-09-18T04:06:02.966Z,2.17
2022-09-18T04:08:29.588Z,2.70
2022-09-18T04:10:56.234Z,1.67
2022-09-18T04:13:22.829Z,1.73
2022-09-18T04:15:50.415Z,2.10
2022-09-18T04:18:18.177Z,2.37
2022-09-18T04:20:45.155Z,1.83
2022-09-18T04:23:14.275Z,2.10
2022-09-18T04:25:42.945Z,1.80
2022-09-18T04:28:10.891Z,1.97
2022-09-18T04:30:38.074Z,1.87
2022-09-18T04:33:05.176Z,1.43
2022-09-18T04:35:31.800Z,1.80
2022-09-18T04:37:58.407Z,1.53
2022-09-18T04:40:25.067Z,1.80
2022-09-18T04:42:51.712Z,1.90
2022-09-18T04:45:18.312Z,2.20
2022-09-18T04:47:48.420Z,1.70
2022-09-18T04:50:15.207Z,1.70
2022-09-18T04:52:41.782Z,1.50
2022-09-18T04:55:08.628Z,1.87
2022-09-18T04:57:35.285Z,2.03
2022-09-18T05:00:02.298Z,1.90
2022-09-18T05:02:28.960Z,1.73
2022-09-18T05:04:55.647Z,1.97
2022-09-18T05:07:22.218Z,2.10
2022-09-18T05:09:49.217Z,1.87
2022-09-18T05:12:15.783Z,1.60
2022-09-18T05:14:42.406Z,1.37
2022-09-18T05:17:08.995Z,1.93
2022-09-18T05:19:35.600Z,1.60
2022-09-18T05:22:03.320Z,1.70
2022-09-18T05:24:29.907Z,2.40
2022-09-18T05:26:56.481Z,1.40
2022-09-18T05:29:23.101Z,1.90
2022-09-18T05:31:49.995Z,1.80
2022-09-18T05:34:16.706Z,2.10
2022-09-18T05:36:43.285Z,2.00
2022-09-18T05:39:13.103Z,1.13
2022-09-18T05:41:42.184Z,1.67
2022-09-18T05:44:08.745Z,2.00
2022-09-18T05:46:35.389Z,1.50
2022-09-18T05:49:02.138Z,2.03
2022-09-18T05:51:28.723Z,4.00
2022-09-18T05:53:55.384Z,1.70
2022-09-18T05:56:22.007Z,1.37
2022-09-18T05:58:48.689Z,1.80
2022-09-18T06:01:15.369Z,1.40
2022-09-18T06:03:42.243Z,2.00
2022-09-18T06:06:08.878Z,2.03
2022-09-18T06:08:36.215Z,2.33
2022-09-18T06:11:03.080Z,2.00
2022-09-18T06:13:29.655Z,2.00
2022-09-18T06:15:57.429Z,1.80
2022-09-18T06:18:24.751Z,1.30
2022-09-18T06:20:54.965Z,2.17
2022-09-18T06:23:23.635Z,1.70
2022-09-18T06:25:57.928Z,1.53
2022-09-18T06:28:24.636Z,2.20
2022-09-18T06:30:51.485Z,1.80
2022-09-18T06:33:18.099Z,1.80
2022-09-18T06:35:48.372Z,1.80
2022-09-18T06:38:15.756Z,1.80
2022-09-18T06:40:49.960Z,1.90
2022-09-18T06:43:17.081Z,1.90
2022-09-18T06:45:44.228Z,1.50
2022-09-18T06:48:10.936Z,1.83
2022-09-18T06:50:37.515Z,2.07
2022-09-18T06:53:11.435Z,2.83
2022-09-18T06:55:38.958Z,2.33
2022-09-18T06:58:05.564Z,1.60
2022-09-18T07:00:32.220Z,1.90
2022-09-18T07:03:02.028Z,2.20
2022-09-18T07:05:31.243Z,3.50
2022-09-18T07:07:58.172Z,1.87
2022-09-18T07:10:25.159Z,1.80
2022-09-18T07:12:59.704Z,1.83
2022-09-18T07:15:26.991Z,2.00
2022-09-18T07:18:00.033Z,1.70
2022-09-18T07:20:27.063Z,1.70
2022-09-18T07:22:55.832Z,1.70
2022-09-18T07:25:22.974Z,2.20
2022-09-18T07:27:50.012Z,1.80
2022-09-18T07:30:19.297Z,1.80
2022-09-18T07:32:46.532Z,1.83
2022-09-18T07:35:13.275Z,1.73
2022-09-18T07:37:40.162Z,2.63
2022-09-18T07:40:08.822Z,1.90
2022-09-18T07:42:36.608Z,2.90
2022-09-18T07:45:03.658Z,4.83
2022-09-18T07:47:30.338Z,5.33
2022-09-18T07:49:56.991Z,2.20
2022-09-18T07:52:24.629Z,1.90
2022-09-18T07:54:51.604Z,2.00
2022-09-18T07:57:19.532Z,1.60
2022-09-18T07:59:46.390Z,2.20
2022-09-18T08:02:13.150Z,2.40
2022-09-18T08:04:39.905Z,2.30
2022-09-18T08:07:06.739Z,1.90
2022-09-18T08:09:33.312Z,2.20
2022-09-18T08:12:00.042Z,1.93
2022-09-18T08:14:28.890Z,2.30
2022-09-18T08:16:56.639Z,1.70
2022-09-18T08:19:24.358Z,1.70
2022-09-18T08:21:52.069Z,2.00
2022-09-18T08:24:24.777Z,2.17
2022-09-18T08:26:51.363Z,1.50
2022-09-18T08:29:20.744Z,1.60
2022-09-18T08:31:47.536Z,2.63
2022-09-18T08:34:14.274Z,2.50
2022-09-18T08:36:40.935Z,1.87
2022-09-18T08:39:07.650Z,2.30
2022-09-18T08:41:54.202Z,2.63
2022-09-18T08:44:33.346Z,2.40
2022-09-18T08:47:27.134Z,2.00
2022-09-18T08:49:59.867Z,2.40
2022-09-18T08:52:34.699Z,2.73
2022-09-18T08:55:05.771Z,1.97
2022-09-18T08:58:00.225Z,1.83
2022-09-18T09:00:34.841Z,1.80
2022-09-18T09:03:16.723Z,2.17
2022-09-18T09:05:56.973Z,1.63
2022-09-18T09:08:29.482Z,1.57
2022-09-18T09:11:29.250Z,1.67
2022-09-18T09:14:45.924Z,1.60
2022-09-18T09:17:20.000Z,1.50
2022-09-18T09:19:58.702Z,1.40
2022-09-18T09:22:57.865Z,1.97
2022-09-18T09:25:34.048Z,1.40
2022-09-18T09:28:16.548Z,1.47
2022-09-18T09:30:48.915Z,1.77
2022-09-18T09:33:27.958Z,1.43
2022-09-18T09:36:03.502Z,2.53
2022-09-18T09:38:48.244Z,2.17
2022-09-18T09:41:32.776Z,1.50
2022-09-18T09:44:23.797Z,1.60
2022-09-18T09:47:02.391Z,1.43
2022-09-18T09:49:53.818Z,1.60
2022-09-18T09:52:29.342Z,2.10
2022-09-18T09:55:08.015Z,2.90
2022-09-18T09:57:41.179Z,1.90
2022-09-18T10:00:19.720Z,1.83
2022-09-18T10:03:02.112Z,1.93
2022-09-18T10:05:34.592Z,1.47
2022-09-18T10:08:17.567Z,1.90
2022-09-18T10:11:01.142Z,1.87
2022-09-18T10:13:44.992Z,1.80
2022-09-18T10:16:18.579Z,2.13
2022-09-18T10:18:49.592Z,2.50
2022-09-18T10:21:22.101Z,2.60
2022-09-18T10:23:56.690Z,2.20
2022-09-18T10:26:33.066Z,1.97
2022-09-18T10:28:59.784Z,2.73
2022-09-18T10:31:48.230Z,2.00
2022-09-18T10:34:36.780Z,2.40
2022-09-18T10:37:03.781Z,2.40
2022-09-18T10:39:33.531Z,1.90
2022-09-18T10:42:02.747Z,2.37
2022-09-18T10:44:35.407Z,1.67
2022-09-18T10:47:10.655Z,2.40
2022-09-18T10:49:55.072Z,2.23
2022-09-18T10:52:31.568Z,2.63
2022-09-18T10:55:07.326Z,1.67
2022-09-18T10:58:12.610Z,3.97
2022-09-18T11:00:43.977Z,2.13
2022-09-18T11:03:22.280Z,2.27
2022-09-18T11:06:03.824Z,2.33
2022-09-18T11:08:35.081Z,2.37
2022-09-18T11:11:07.241Z,2.23
2022-09-18T11:13:44.762Z,2.53
2022-09-18T11:16:12.059Z,2.60
2022-09-18T11:18:38.731Z,2.13
2022-09-18T11:21:06.774Z,2.40
2022-09-18T11:23:35.543Z,3.10
2022-09-18T11:26:12.840Z,2.27
2022-09-18T11:28:40.377Z,2.03
2022-09-18T11:31:19.404Z,2.50
2022-09-18T11:33:51.032Z,2.17
2022-09-18T11:36:26.484Z,2.13
2022-09-18T11:38:53.888Z,2.20
2022-09-18T11:41:36.587Z,2.73
2022-09-18T11:44:16.441Z,2.37
2022-09-18T11:47:10.266Z,2.50
2022-09-18T11:49:42.425Z,2.50
2022-09-18T11:52:35.164Z,2.53
2022-09-18T11:55:09.796Z,1.80
2022-09-18T11:57:48.007Z,3.10
2022-09-18T12:00:22.807Z,2.67
2022-09-18T12:03:03.071Z,2.63
2022-09-18T12:06:00.264Z,2.77
2022-09-18T12:08:43.528Z,2.73
2022-09-18T12:11:18.709Z,4.07
2022-09-18T12:14:09.483Z,2.50
2022-09-18T12:16:49.141Z,3.20
2022-09-18T12:19:30.935Z,3.10
2022-09-18T12:22:24.215Z,3.27
2022-09-18T12:24:50.793Z,2.80
2022-09-18T12:27:31.299Z,3.23
2022-09-18T12:30:07.573Z,3.03
2022-09-18T12:32:53.194Z,3.10
2022-09-18T12:35:42.985Z,3.20
2022-09-18T12:38:25.436Z,3.33
2022-09-18T12:41:35.111Z,2.73
2022-09-18T12:44:11.683Z,5.73
2022-09-18T12:47:00.650Z,3.50
2022-09-18T12:49:46.087Z,3.10
2022-09-18T12:52:28.015Z,3.00
2022-09-18T12:55:19.279Z,3.07
2022-09-18T12:58:13.179Z,3.47
2022-09-18T13:00:43.202Z,3.20
2022-09-18T13:03:15.948Z,3.10
2022-09-18T13:05:51.775Z,3.30
2022-09-18T13:08:29.743Z,2.97
2022-09-18T13:11:09.399Z,2.60
2022-09-18T13:14:01.835Z,2.73
2022-09-18T13:16:50.502Z,3.70
2022-09-18T13:19:28.611Z,2.70
2022-09-18T13:22:04.343Z,2.80
2022-09-18T13:24:33.982Z,2.73
2022-09-18T13:27:04.867Z,6.27
2022-09-18T13:29:52.752Z,2.50
2022-09-18T13:32:22.793Z,2.50
2022-09-18T13:34:59.155Z,2.70
2022-09-18T13:37:28.224Z,2.50
2022-09-18T13:40:10.328Z,2.60
2022-09-18T13:42:42.705Z,2.27
2022-09-18T13:45:24.243Z,2.50
2022-09-18T13:48:00.401Z,2.00
2022-09-18T13:50:27.914Z,2.00
2022-09-18T13:52:58.388Z,1.70
2022-09-18T13:55:26.665Z,1.83
2022-09-18T13:58:34.654Z,2.40
2022-09-18T14:01:04.113Z,2.87
2022-09-18T14:03:31.203Z,2.70
2022-09-18T14:05:57.855Z,1.83
2022-09-18T14:08:24.529Z,2.17
2022-09-18T14:11:17.633Z,2.20
2022-09-18T14:13:56.847Z,2.20
2022-09-18T14:16:25.857Z,2.87
2022-09-18T14:19:03.213Z,3.27
2022-09-18T14:21:33.438Z,2.60
2022-09-18T14:24:06.403Z,2.60
2022-09-18T14:26:37.232Z,3.20
2022-09-18T14:29:16.469Z,3.10
2022-09-18T14:31:51.957Z,3.03
2022-09-18T14:34:34.854Z,2.83
2022-09-18T14:37:19.991Z,2.93
2022-09-18T14:39:46.652Z,3.50
2022-09-18T14:42:35.770Z,3.00
2022-09-18T14:45:12.261Z,4.17
2022-09-18T14:47:44.619Z,2.77
2022-09-18T14:50:37.470Z,1.67
2022-09-18T14:53:25.910Z,1.50
2022-09-18T14:55:57.203Z,1.10
2022-09-18T14:58:28.982Z,0.90
2022-09-18T15:00:56.188Z,0.90
2022-09-18T15:03:33.676Z,1.20
2022-09-18T15:06:25.367Z,2.10
2022-09-18T15:08:54.545Z,0.93
2022-09-18T15:11:24.059Z,1.03
2022-09-18T15:13:53.300Z,1.20
2022-09-18T15:16:24.241Z,1.30
2022-09-18T15:18:50.963Z,1.20
2022-09-18T15:21:33.755Z,1.70
2022-09-18T15:24:02.776Z,1.47
2022-09-18T15:26:43.300Z,1.50
2022-09-18T15:29:21.959Z,1.27
2022-09-18T15:31:50.427Z,1.53
2022-09-18T15:34:20.717Z,1.50
2022-09-18T15:37:02.305Z,2.20
2022-09-18T15:39:34.935Z,2.00
2022-09-18T15:42:27.995Z,1.50
2022-09-18T15:45:00.500Z,1.33
2022-09-18T15:47:34.568Z,1.60
2022-09-18T15:50:22.429Z,1.10
2022-09-18T15:52:52.099Z,1.90
2022-09-18T15:55:24.722Z,1.53
2022-09-18T15:57:52.323Z,1.40
2022-09-18T16:00:28.364Z,1.27
2022-09-18T16:03:03.734Z,1.63
2022-09-18T16:05:33.250Z,1.13
2022-09-18T16:08:02.769Z,1.53
2022-09-18T16:10:36.161Z,2.00
2022-09-18T16:13:14.858Z,1.70
2022-09-18T16:15:47.292Z,1.60
2022-09-18T16:18:23.711Z,1.00
2022-09-18T16:20:50.956Z,1.30
2022-09-18T16:23:47.347Z,2.00
2022-09-18T16:26:19.889Z,9.53
2022-09-18T16:28:52.368Z,2.77
2022-09-18T16:31:21.597Z,1.37
2022-09-18T16:33:52.354Z,1.10
2022-09-18T16:36:39.795Z,1.20
2022-09-18T16:39:11.727Z,1.00
2022-09-18T16:41:39.090Z,1.30
2022-09-18T16:44:10.858Z,1.17
2022-09-18T16:46:48.654Z,1.10
2022-09-18T16:49:19.006Z,1.53
2022-09-18T16:51:45.668Z,1.50
2022-09-18T16:54:14.494Z,1.40
2022-09-18T16:56:49.382Z,1.07
2022-09-18T16:59:16.064Z,3.40
2022-09-18T17:02:00.530Z,1.43
2022-09-18T17:04:33.522Z,5.67
2022-09-18T17:07:00.696Z,3.23
2022-09-18T17:09:28.945Z,3.07
2022-09-18T17:11:55.949Z,1.30
2022-09-18T17:14:27.817Z,1.57
2022-09-18T17:16:54.882Z,1.90
2022-09-18T17:19:22.799Z,1.97
2022-09-18T17:21:50.059Z,1.67
2022-09-18T17:24:17.423Z,0.97
2022-09-18T17:26:44.125Z,1.10
2022-09-18T17:29:13.879Z,1.30
2022-09-18T17:31:40.706Z,0.70
2022-09-18T17:34:07.480Z,0.93
2022-09-18T17:36:40.176Z,1.17
2022-09-18T17:39:07.421Z,1.10
2022-09-18T17:41:34.249Z,1.20
2022-09-18T17:44:01.054Z,1.43
2022-09-18T17:46:29.763Z,1.20
2022-09-18T17:48:57.967Z,1.53
2022-09-18T17:51:28.756Z,2.03
2022-09-18T17:54:04.145Z,5.40
2022-09-18T17:56:33.112Z,4.17
2022-09-18T17:59:03.766Z,1.63
2022-09-18T18:01:30.446Z,4.20
2022-09-18T18:03:57.246Z,1.80
2022-09-18T18:06:24.422Z,2.07
2022-09-18T18:08:51.714Z,1.70
2022-09-18T18:11:22.053Z,5.80
2022-09-18T18:13:50.215Z,2.10
2022-09-18T18:16:30.385Z,7.10
2022-09-18T18:19:03.183Z,2.13
2022-09-18T18:21:31.798Z,1.30
2022-09-18T18:24:04.705Z,1.33
2022-09-18T18:26:31.832Z,2.37
2022-09-18T18:28:58.503Z,1.25
2022-09-18T18:31:34.298Z,1.37
2022-09-18T18:34:01.007Z,1.20
2022-09-18T18:36:30.280Z,1.65
2022-09-18T18:38:59.190Z,1.35
2022-09-18T18:41:28.852Z,1.00
2022-09-18T18:43:58.228Z,1.90
2022-09-18T18:46:26.883Z,2.08
2022-09-18T18:49:01.646Z,2.70
2022-09-18T18:51:40.471Z,1.27
2022-09-18T18:54:07.134Z,1.40
2022-09-18T18:56:37.521Z,1.70
2022-09-18T18:59:06.153Z,1.70
2022-09-18T19:01:33.264Z,1.77
2022-09-18T19:04:06.394Z,1.70
2022-09-18T19:06:36.243Z,1.60
2022-09-18T19:09:11.990Z,1.47
2022-09-18T19:11:44.263Z,1.23
2022-09-18T19:14:13.202Z,1.90
2022-09-18T19:16:40.503Z,1.67
2022-09-18T19:19:09.386Z,3.20
2022-09-18T19:21:37.841Z,1.43
2022-09-18T19:24:07.857Z,1.40
2022-09-18T19:26:35.582Z,1.33
2022-09-18T19:29:08.851Z,2.00
2022-09-18T19:31:37.341Z,1.60
2022-09-18T19:34:04.989Z,1.30
2022-09-18T19:36:32.406Z,1.20
2022-09-18T19:39:03.935Z,1.10
2022-09-18T19:41:46.597Z,2.20
2022-09-18T19:44:19.107Z,1.40
2022-09-18T19:46:47.905Z,1.30
2022-09-18T19:49:18.024Z,1.40
2022-09-18T19:51:45.914Z,1.40
2022-09-18T19:54:12.879Z,1.60
2022-09-18T19:56:45.818Z,3.33
2022-09-18T19:59:12.555Z,2.10
2022-09-18T20:01:39.409Z,1.60
2022-09-18T20:04:07.162Z,1.80
2022-09-18T20:06:33.776Z,1.25
2022-09-18T20:09:00.590Z,1.63
2022-09-18T20:11:27.285Z,1.40
2022-09-18T20:13:54.199Z,1.50
2022-09-18T20:16:25.125Z,1.60
2022-09-18T20:18:51.751Z,1.67
2022-09-18T20:21:19.563Z,1.30
2022-09-18T20:23:47.580Z,1.47
2022-09-18T20:26:16.666Z,1.40
2022-09-18T20:28:43.655Z,1.50
2022-09-18T20:31:13.760Z,1.75
2022-09-18T20:33:40.482Z,1.30
2022-09-18T20:36:09.148Z,1.90
2022-09-18T20:38:38.410Z,1.73
2022-09-18T20:41:13.093Z,1.60
2022-09-18T20:43:41.667Z,1.85
2022-09-18T20:46:15.682Z,2.33
2022-09-18T20:48:54.902Z,1.80
2022-09-18T20:51:24.545Z,1.30
2022-09-18T20:53:52.908Z,2.10
2022-09-18T20:56:21.498Z,1.40
2022-09-18T20:58:51.226Z,1.50
2022-09-18T21:01:26.699Z,1.73
2022-09-18T21:04:03.233Z,2.22
2022-09-18T21:06:32.941Z,2.20
2022-09-18T21:09:07.293Z,2.00
2022-09-18T21:11:40.328Z,3.03
2022-09-18T21:14:09.458Z,1.92
2022-09-18T21:16:44.805Z,2.22
2022-09-18T21:19:13.443Z,2.05
2022-09-18T21:21:40.606Z,2.03
2022-09-18T21:24:08.801Z,2.28
2022-09-18T21:26:40.585Z,2.10
2022-09-18T21:29:12.531Z,2.13
2022-09-18T21:31:42.380Z,2.35
2022-09-18T21:34:11.718Z,2.72
2022-09-18T21:36:43.327Z,2.13
2022-09-18T21:39:11.764Z,2.53
2022-09-18T21:41:39.420Z,2.97
2022-09-18T21:44:08.811Z,2.92
2022-09-18T21:46:38.638Z,2.10
2022-09-18T21:49:07.492Z,2.70
2022-09-18T21:51:36.011Z,2.45
2022-09-18T21:54:05.461Z,2.60
2022-09-18T21:56:33.314Z,1.90
2022-09-18T21:59:00.385Z,2.65
2022-09-18T22:01:33.351Z,2.13
2022-09-18T22:04:02.152Z,1.95
2022-09-18T22:06:35.939Z,2.03
2022-09-18T22:09:14.566Z,2.10
2022-09-18T22:11:44.275Z,2.10
2022-09-18T22:14:18.060Z,1.60
2022-09-18T22:16:47.004Z,2.00
2022-09-18T22:19:14.844Z,1.95
2022-09-18T22:21:45.844Z,2.10
2022-09-18T22:24:18.826Z,1.70
2022-09-18T22:26:59.948Z,2.35
2022-09-18T22:29:29.465Z,2.10
2022-09-18T22:31:57.325Z,2.58
2022-09-18T22:34:26.354Z,2.17
2022-09-18T22:36:53.133Z,2.60
2022-09-18T22:39:21.199Z,2.95
2022-09-18T22:41:51.512Z,3.60
2022-09-18T22:44:20.470Z,4.78
2022-09-18T22:46:47.744Z,4.95
2022-09-18T22:49:16.651Z,5.18
2022-09-18T22:51:44.723Z,5.95
2022-09-18T22:54:12.543Z,5.20
2022-09-18T22:56:42.555Z,5.70
2022-09-18T22:59:11.628Z,6.17
2022-09-18T23:01:42.489Z,6.43
2022-09-18T23:04:09.823Z,5.57
2022-09-18T23:06:36.512Z,5.45
2022-09-18T23:09:04.569Z,5.13
2022-09-18T23:11:33.431Z,6.20
2022-09-18T23:14:03.288Z,5.60
2022-09-18T23:16:31.834Z,6.60
2022-09-18T23:19:01.140Z,5.72
2022-09-18T23:21:31.954Z,6.20
2022-09-18T23:24:00.706Z,5.90
2022-09-18T23:26:32.351Z,6.40
2022-09-18T23:29:00.830Z,6.43
2022-09-18T23:31:30.207Z,6.32
2022-09-18T23:33:59.148Z,6.50
2022-09-18T23:36:29.293Z,6.10
2022-09-18T23:39:05.085Z,6.80
2022-09-18T23:41:34.630Z,6.00
2022-09-18T23:44:02.464Z,6.33
2022-09-18T23:46:29.269Z,6.70
2022-09-18T23:48:55.900Z,6.17
2022-09-18T23:51:25.202Z,6.65
2022-09-18T23:53:52.670Z,7.60
2022-09-18T23:56:22.066Z,7.90
2022-09-18T23:58:54.138Z,7.40
